createdAt,value
2022-08-12T00:00:33.736Z,4.97
2022-08-12T00:03:37.575Z,4.40
2022-08-12T00:06:42.363Z,3.47
2022-08-12T00:09:46.316Z,3.38
2022-08-12T00:12:53.338Z,3.15
2022-08-12T00:16:00.519Z,3.67
2022-08-12T00:19:04.182Z,3.28
2022-08-12T00:22:08.432Z,3.22
2022-08-12T00:25:20.196Z,2.88
2022-08-12T00:28:43.922Z,3.17
2022-08-12T00:31:47.838Z,3.35
2022-08-12T00:34:52.162Z,2.85
2022-08-12T00:37:55.847Z,3.45
2022-08-12T00:41:02.290Z,2.80
2022-08-12T00:43:48.647Z,2.75
2022-08-12T00:46:50.489Z,3.08
2022-08-12T00:49:36.026Z,3.58
2022-08-12T00:52:22.807Z,2.78
2022-08-12T00:55:08.277Z,2.95
2022-08-12T00:57:54.213Z,4.10
2022-08-12T01:00:42.474Z,3.47
2022-08-12T01:03:48.220Z,3.33
2022-08-12T01:06:53.835Z,3.50
2022-08-12T01:09:59.499Z,2.80
2022-08-12T01:12:45.400Z,3.22
2022-08-12T01:15:31.362Z,3.85
2022-08-12T01:18:22.169Z,3.40
2022-08-12T01:21:29.204Z,3.80
2022-08-12T01:24:43.951Z,3.78
2022-08-12T01:27:30.208Z,3.30
2022-08-12T01:30:16.511Z,3.10
2022-08-12T01:33:06.015Z,5.63
2022-08-12T01:36:08.005Z,3.13
2022-08-12T01:38:57.648Z,3.28
2022-08-12T01:41:53.839Z,2.60
2022-08-12T01:44:39.589Z,3.55
2022-08-12T01:47:30.380Z,3.30
2022-08-12T01:50:20.781Z,3.10
2022-08-12T01:53:12.914Z,3.10
2022-08-12T01:55:59.974Z,3.60
2022-08-12T01:59:05.327Z,2.85
2022-08-12T02:01:56.758Z,2.67
2022-08-12T02:05:20.177Z,3.03
2022-08-12T02:08:36.511Z,3.00
2022-08-12T02:11:29.147Z,3.08
2022-08-12T02:14:51.717Z,3.05
2022-08-12T02:18:17.774Z,3.17
2022-08-12T02:21:24.949Z,2.88
2022-08-12T02:24:15.849Z,3.63
2022-08-12T02:27:02.743Z,3.35
2022-08-12T02:29:49.272Z,3.10
2022-08-12T02:32:38.981Z,3.45
2022-08-12T02:35:28.058Z,3.58
2022-08-12T02:38:17.432Z,3.10
2022-08-12T02:41:04.642Z,3.55
2022-08-12T02:43:59.026Z,2.75
2022-08-12T02:46:49.555Z,3.22
2022-08-12T02:49:39.836Z,3.67
2022-08-12T02:52:27.320Z,3.40
2022-08-12T02:55:28.658Z,2.60
2022-08-12T02:58:20.550Z,3.15
2022-08-12T03:01:24.990Z,2.90
2022-08-12T03:04:20.564Z,3.92
2022-08-12T03:07:55.135Z,6.35
2022-08-12T03:10:37.489Z,3.35
2022-08-12T03:13:26.307Z,3.40
2022-08-12T03:16:11.910Z,2.67
2022-08-12T03:18:58.231Z,3.03
2022-08-12T03:21:55.398Z,3.03
2022-08-12T03:24:51.239Z,3.00
2022-08-12T03:27:40.500Z,3.60
2022-08-12T03:30:34.456Z,3.28
2022-08-12T03:33:21.709Z,2.78
2022-08-12T03:36:09.320Z,3.55
2022-08-12T03:39:19.692Z,3.80
2022-08-12T03:42:12.441Z,3.88
2022-08-12T03:45:16.297Z,4.22
2022-08-12T03:48:23.174Z,3.70
2022-08-12T03:51:27.415Z,8.00
2022-08-12T03:54:31.309Z,3.65
2022-08-12T03:57:35.134Z,3.70
2022-08-12T04:00:24.029Z,3.78
2022-08-12T04:03:30.264Z,5.43
2022-08-12T04:06:16.134Z,3.83
2022-08-12T04:09:23.096Z,7.78
2022-08-12T04:12:40.322Z,6.10
2022-08-12T04:15:28.873Z,6.18
2022-08-12T04:18:18.035Z,6.95
2022-08-12T04:21:03.775Z,4.68
2022-08-12T04:23:49.481Z,7.00
2022-08-12T04:26:39.987Z,6.32
2022-08-12T04:30:31.276Z,5.97
2022-08-12T04:32:32.178Z,4.80
2022-08-12T04:35:17.823Z,3.60
2022-08-12T04:38:05.287Z,4.57
2022-08-12T04:40:51.737Z,3.80
2022-08-12T04:44:00.494Z,3.25
2022-08-12T04:46:43.736Z,3.55
2022-08-12T04:49:32.085Z,5.10
2022-08-12T04:52:18.019Z,6.28
2022-08-12T04:55:03.699Z,3.30
2022-08-12T04:57:49.633Z,4.80
2022-08-12T05:00:38.175Z,4.57
2022-08-12T05:03:26.450Z,3.65
2022-08-12T05:06:17.048Z,4.20
2022-08-12T05:09:13.449Z,3.83
2022-08-12T05:11:58.967Z,4.15
2022-08-12T05:14:44.190Z,4.32
2022-08-12T05:17:29.515Z,3.85
2022-08-12T05:20:16.217Z,4.65
2022-08-12T05:23:12.973Z,4.07
2022-08-12T05:26:00.941Z,3.78
2022-08-12T05:28:46.281Z,4.07
2022-08-12T05:31:47.732Z,3.92
2022-08-12T05:34:34.506Z,3.97
2022-08-12T05:37:23.319Z,3.78
2022-08-12T05:40:11.457Z,3.42
2022-08-12T05:42:56.983Z,2.85
2022-08-12T05:45:45.993Z,3.17
2022-08-12T05:48:32.983Z,3.55
2022-08-12T05:51:18.824Z,3.80
2022-08-12T05:54:04.891Z,3.45
2022-08-12T05:56:51.693Z,4.43
2022-08-12T05:59:38.395Z,4.20
2022-08-12T06:02:23.528Z,4.18
2022-08-12T06:05:10.509Z,4.18
2022-08-12T06:08:02.843Z,4.40
2022-08-12T06:10:50.867Z,5.03
2022-08-12T06:13:53.910Z,5.50
2022-08-12T06:16:39.643Z,11.43
2022-08-12T06:19:25.190Z,6.15
2022-08-12T06:22:30.624Z,14.25
2022-08-12T06:25:22.090Z,8.65
2022-08-12T06:28:17.689Z,4.28
2022-08-12T06:35:25.566Z,3.33
2022-08-12T06:45:01.028Z,6.00
2022-08-12T06:47:47.959Z,3.55
2022-08-12T06:50:38.136Z,2.67
2022-08-12T06:53:26.629Z,2.88
2022-08-12T06:56:12.760Z,4.28
2022-08-12T06:58:58.043Z,3.72
2022-08-12T07:01:51.087Z,4.53
2022-08-12T07:04:39.218Z,3.80
2022-08-12T07:07:25.099Z,1.92
2022-08-12T07:10:10.254Z,2.22
2022-08-12T07:12:55.246Z,1.98
2022-08-12T07:15:43.840Z,2.80
2022-08-12T07:18:35.379Z,2.78
2022-08-12T07:21:20.877Z,2.47
2022-08-12T07:24:06.222Z,3.08
2022-08-12T07:26:54.887Z,2.55
2022-08-12T07:30:04.011Z,3.05
2022-08-12T07:32:49.626Z,2.33
2022-08-12T07:35:45.362Z,2.08
2022-08-12T07:38:40.082Z,1.90
2022-08-12T07:41:30.238Z,2.15
2022-08-12T07:44:15.732Z,2.15
2022-08-12T07:47:01.072Z,1.92
2022-08-12T07:50:05.633Z,2.35
2022-08-12T07:52:53.649Z,2.00
2022-08-12T07:55:39.362Z,1.63
2022-08-12T07:58:25.437Z,1.60
2022-08-12T08:01:15.477Z,2.20
2022-08-12T08:04:19.739Z,2.63
2022-08-12T08:07:09.370Z,2.80
2022-08-12T08:09:58.441Z,2.67
2022-08-12T08:12:53.657Z,2.60
2022-08-12T08:18:45.519Z,1.60
2022-08-12T08:21:35.208Z,2.40
2022-08-12T08:24:24.454Z,1.63
2022-08-12T08:27:11.985Z,2.03
2022-08-12T08:29:57.831Z,1.70
2022-08-12T08:32:43.096Z,2.50
2022-08-12T08:35:46.456Z,1.60
2022-08-12T08:38:34.909Z,1.30
2022-08-12T08:42:15.896Z,1.40
2022-08-12T08:44:45.503Z,1.73
2022-08-12T08:47:30.995Z,1.67
2022-08-12T08:50:16.250Z,1.50
2022-08-12T08:53:01.414Z,1.00
2022-08-12T08:56:04.065Z,1.30
2022-08-12T08:58:50.159Z,1.35
2022-08-12T09:01:38.592Z,1.58
2022-08-12T09:05:13.341Z,1.45
2022-08-12T09:07:51.682Z,1.20
2022-08-12T09:10:35.067Z,1.70
2022-08-12T09:19:45.719Z,1.75
2022-08-12T09:22:39.694Z,1.50
2022-08-12T09:25:33.342Z,1.33
2022-08-12T09:28:21.110Z,1.73
2022-08-12T09:32:02.778Z,1.50
2022-08-12T09:34:26.692Z,1.90
2022-08-12T09:37:19.950Z,1.25
2022-08-12T09:40:57.166Z,13.38
2022-08-12T09:43:35.002Z,11.75
2022-08-12T09:46:22.370Z,3.75
2022-08-12T09:49:16.249Z,4.97
2022-08-12T09:52:01.842Z,4.30
2022-08-12T09:54:48.468Z,2.38
2022-08-12T09:58:46.097Z,2.28
2022-08-12T10:00:51.885Z,2.13
2022-08-12T10:04:03.201Z,1.80
2022-08-12T10:06:55.330Z,1.30
2022-08-12T10:09:58.807Z,1.55
2022-08-12T10:13:08.123Z,1.40
2022-08-12T10:16:02.622Z,1.80
2022-08-12T10:19:01.945Z,1.83
2022-08-12T10:21:47.462Z,1.52
2022-08-12T10:24:42.653Z,1.58
2022-08-12T10:28:05.305Z,1.90
2022-08-12T10:30:59.021Z,1.92
2022-08-12T10:34:04.998Z,1.80
2022-08-12T10:36:55.028Z,1.38
2022-08-12T10:40:02.054Z,1.33
2022-08-12T10:43:04.927Z,1.50
2022-08-12T10:45:57.233Z,1.30
2022-08-12T10:48:47.405Z,1.92
2022-08-12T10:52:03.443Z,1.63
2022-08-12T10:54:50.906Z,1.80
2022-08-12T10:58:12.995Z,1.70
2022-08-12T11:00:54.899Z,2.65
2022-08-12T11:04:35.392Z,3.38
2022-08-12T11:07:05.004Z,2.63
2022-08-12T11:10:01.770Z,1.90
2022-08-12T11:12:59.499Z,1.60
2022-08-12T11:16:03.267Z,2.30
2022-08-12T11:18:55.408Z,1.63
2022-08-12T11:21:57.826Z,1.48
2022-08-12T11:24:51.667Z,1.60
2022-08-12T11:27:37.000Z,1.33
2022-08-12T11:30:31.001Z,1.50
2022-08-12T11:33:52.620Z,1.80
2022-08-12T11:36:22.580Z,2.28
2022-08-12T11:39:07.825Z,2.10
2022-08-12T11:41:57.676Z,2.17
2022-08-12T11:44:48.438Z,1.50
2022-08-12T11:47:33.520Z,1.40
2022-08-12T11:50:20.484Z,2.00
2022-08-12T11:53:05.546Z,1.70
2022-08-12T11:56:11.494Z,1.40
2022-08-12T12:02:05.256Z,1.52
2022-08-12T12:04:52.762Z,1.48
2022-08-12T12:08:38.332Z,1.60
2022-08-12T12:10:45.457Z,4.07
2022-08-12T12:14:08.891Z,1.88
2022-08-12T12:16:38.292Z,1.77
2022-08-12T12:19:25.212Z,3.08
2022-08-12T12:22:30.765Z,2.00
2022-08-12T12:25:16.687Z,1.40
2022-08-12T12:28:06.187Z,1.45
2022-08-12T12:30:54.951Z,1.35
2022-08-12T12:33:57.072Z,1.30
2022-08-12T12:36:47.641Z,1.38
2022-08-12T12:39:54.791Z,1.27
2022-08-12T12:42:45.618Z,1.40
2022-08-12T12:45:44.569Z,1.40
2022-08-12T12:48:31.438Z,1.45
2022-08-12T12:51:49.370Z,1.45
2022-08-12T12:54:28.980Z,1.40
2022-08-12T12:57:14.632Z,1.23
2022-08-12T13:00:17.930Z,1.25
2022-08-12T13:03:03.150Z,1.38
2022-08-12T13:05:53.609Z,1.38
2022-08-12T13:08:39.680Z,1.42
2022-08-12T13:11:41.144Z,1.42
2022-08-12T13:14:28.708Z,1.60
2022-08-12T13:17:19.882Z,1.30
2022-08-12T13:20:05.662Z,1.60
2022-08-12T13:22:53.390Z,1.23
2022-08-12T13:25:42.005Z,1.23
2022-08-12T13:31:17.767Z,1.50
2022-08-12T13:34:32.626Z,1.75
2022-08-12T13:37:10.343Z,1.50
2022-08-12T13:39:55.874Z,1.58
2022-08-12T13:42:41.132Z,1.13
2022-08-12T13:48:19.871Z,1.63
2022-08-12T13:51:05.506Z,1.40
2022-08-12T13:53:58.947Z,3.53
2022-08-12T13:56:49.956Z,2.60
2022-08-12T13:59:48.228Z,1.55
2022-08-12T14:02:40.017Z,1.77
2022-08-12T14:05:30.966Z,1.48
2022-08-12T14:08:23.759Z,1.63
2022-08-12T14:11:13.151Z,1.80
2022-08-12T14:14:03.404Z,1.45
2022-08-12T14:16:58.257Z,1.50
2022-08-12T14:20:03.244Z,1.65
2022-08-12T14:22:49.617Z,1.45
2022-08-12T14:25:40.853Z,1.55
2022-08-12T14:28:28.779Z,2.40
2022-08-12T14:31:18.107Z,1.85
2022-08-12T14:34:05.096Z,2.25
2022-08-12T14:36:50.315Z,1.92
2022-08-12T14:39:35.942Z,1.50
2022-08-12T14:42:26.020Z,2.30
2022-08-12T14:45:11.435Z,1.42
2022-08-12T14:47:58.993Z,1.70
2022-08-12T14:51:03.139Z,1.40
2022-08-12T14:55:18.251Z,1.75
2022-08-12T14:57:24.021Z,1.45
2022-08-12T15:00:23.289Z,1.52
2022-08-12T15:03:13.551Z,2.22
2022-08-12T15:06:38.807Z,1.40
2022-08-12T15:09:09.312Z,1.80
2022-08-12T15:12:03.381Z,1.70
2022-08-12T15:14:49.409Z,1.65
2022-08-12T15:17:37.780Z,1.48
2022-08-12T15:20:37.724Z,1.60
2022-08-12T15:26:37.796Z,2.03
2022-08-12T15:29:26.565Z,1.85
2022-08-12T15:32:16.162Z,1.30
2022-08-12T15:35:01.541Z,1.50
2022-08-12T15:38:09.179Z,1.50
2022-08-12T15:40:59.147Z,2.75
2022-08-12T15:44:16.178Z,2.17
2022-08-12T15:46:50.127Z,2.20
2022-08-12T15:49:54.417Z,2.38
2022-08-12T15:52:43.144Z,2.30
2022-08-12T15:55:33.709Z,1.67
2022-08-12T15:58:19.169Z,2.25
2022-08-12T16:01:17.433Z,1.50
2022-08-12T16:04:03.143Z,2.25
2022-08-12T16:07:05.560Z,1.80
2022-08-12T16:09:56.345Z,1.70
2022-08-12T16:12:55.362Z,1.65
2022-08-12T16:15:42.281Z,2.03
2022-08-12T16:18:38.208Z,2.72
2022-08-12T16:21:52.718Z,2.17
2022-08-12T16:24:30.189Z,2.20
2022-08-12T16:27:17.724Z,2.30
2022-08-12T16:30:04.330Z,2.00
2022-08-12T16:32:53.809Z,2.13
2022-08-12T16:35:41.010Z,1.77
2022-08-12T16:41:14.546Z,2.20
2022-08-12T16:44:00.876Z,1.60
2022-08-12T16:46:58.147Z,2.08
2022-08-12T16:49:43.817Z,2.85
2022-08-12T16:52:29.193Z,2.50
2022-08-12T16:55:15.100Z,2.40
2022-08-12T16:58:01.652Z,2.47
2022-08-12T17:00:49.231Z,2.90
2022-08-12T17:03:36.905Z,3.10
2022-08-12T17:06:27.341Z,2.15
2022-08-12T17:09:17.826Z,2.72
2022-08-12T17:12:04.445Z,2.47
2022-08-12T17:14:53.097Z,2.50
2022-08-12T17:17:40.193Z,3.08
2022-08-12T17:20:35.094Z,2.55
2022-08-12T17:23:27.491Z,2.35
2022-08-12T17:26:33.847Z,10.90
2022-08-12T17:29:32.173Z,7.15
2022-08-12T17:32:30.579Z,8.27
2022-08-12T17:35:36.705Z,6.75
2022-08-12T17:38:23.050Z,4.57
2022-08-12T17:41:22.942Z,5.32
2022-08-12T17:45:01.573Z,5.47
2022-08-12T17:48:01.818Z,5.70
2022-08-12T17:50:50.727Z,2.38
2022-08-12T17:54:05.784Z,4.47
2022-08-12T17:56:42.962Z,3.47
2022-08-12T17:59:48.991Z,8.10
2022-08-12T18:02:35.432Z,3.28
2022-08-12T18:05:23.021Z,4.70
2022-08-12T18:08:12.586Z,7.88
2022-08-12T18:11:38.342Z,7.47
2022-08-12T18:14:28.111Z,5.32
2022-08-12T18:17:16.186Z,8.02
2022-08-12T18:20:07.894Z,9.40
2022-08-12T18:22:55.886Z,9.95
2022-08-12T18:26:14.728Z,7.60
2022-08-12T18:29:02.808Z,7.82
2022-08-12T18:32:00.051Z,7.18
2022-08-12T18:34:58.307Z,7.95
2022-08-12T18:37:57.171Z,3.42
2022-08-12T18:41:03.210Z,4.38
2022-08-12T18:43:59.281Z,5.68
2022-08-12T18:46:58.730Z,4.32
2022-08-12T18:49:47.427Z,4.40
2022-08-12T18:52:36.565Z,4.10
2022-08-12T18:55:26.977Z,4.13
2022-08-12T18:58:24.028Z,4.30
2022-08-12T19:02:19.178Z,3.72
2022-08-12T19:04:26.319Z,4.40
2022-08-12T19:07:58.124Z,7.47
2022-08-12T19:10:50.098Z,6.82
2022-08-12T19:13:54.727Z,7.30
2022-08-12T19:16:40.183Z,5.70
2022-08-12T19:19:25.412Z,5.93
2022-08-12T19:22:10.617Z,6.25
2022-08-12T19:25:15.272Z,6.85
2022-08-12T19:28:03.396Z,5.15
2022-08-12T19:31:08.871Z,5.93
2022-08-12T19:34:21.952Z,6.40
2022-08-12T19:37:04.189Z,6.22
2022-08-12T19:40:09.104Z,6.18
2022-08-12T19:43:01.782Z,5.13
2022-08-12T19:45:54.295Z,5.13
2022-08-12T19:48:46.016Z,5.05
2022-08-12T19:51:49.589Z,5.78
2022-08-12T19:54:35.269Z,5.10
2022-08-12T19:57:22.469Z,5.05
2022-08-12T20:00:17.197Z,4.65
2022-08-12T20:03:04.831Z,3.80
2022-08-12T20:06:05.526Z,3.97
2022-08-12T20:08:56.461Z,3.40
2022-08-12T20:12:13.705Z,3.50
2022-08-12T20:14:52.336Z,3.45
2022-08-12T20:17:50.738Z,3.72
2022-08-12T20:20:38.256Z,3.33
2022-08-12T20:23:37.205Z,4.43
2022-08-12T20:26:33.522Z,4.10
2022-08-12T20:29:20.282Z,3.95
2022-08-12T20:32:09.462Z,3.92
2022-08-12T20:34:55.255Z,4.00
2022-08-12T20:38:07.296Z,4.88
2022-08-12T20:40:47.953Z,4.10
2022-08-12T20:43:35.685Z,3.70
2022-08-12T20:46:31.524Z,3.95
2022-08-12T20:49:17.551Z,3.65
2022-08-12T20:52:03.546Z,3.63
2022-08-12T20:54:51.588Z,4.50
2022-08-12T20:57:38.033Z,3.83
2022-08-12T21:00:28.107Z,3.30
2022-08-12T21:03:32.556Z,3.90
2022-08-12T21:06:36.308Z,3.88
2022-08-12T21:09:23.165Z,3.78
2022-08-12T21:12:31.379Z,4.85
2022-08-12T21:15:23.944Z,5.22
2022-08-12T21:18:29.086Z,5.00
2022-08-12T21:21:23.625Z,4.82
2022-08-12T21:24:10.919Z,4.03
2022-08-12T21:26:59.940Z,4.68
2022-08-12T21:29:55.174Z,23.00
2022-08-12T21:32:43.344Z,16.10
2022-08-12T21:35:35.993Z,9.30
2022-08-12T21:38:26.342Z,8.80
2022-08-12T21:41:20.372Z,7.00
2022-08-12T21:44:24.136Z,6.47
2022-08-12T21:47:20.852Z,3.60
2022-08-12T21:50:08.160Z,3.55
2022-08-12T21:52:54.493Z,3.50
2022-08-12T21:55:44.009Z,3.83
2022-08-12T21:58:29.287Z,3.63
2022-08-12T22:01:20.009Z,3.75
2022-08-12T22:04:27.412Z,3.90
2022-08-12T22:07:13.380Z,3.60
2022-08-12T22:10:04.629Z,3.50
2022-08-12T22:12:49.843Z,3.00
2022-08-12T22:15:35.177Z,3.00
2022-08-12T22:18:24.354Z,3.22
2022-08-12T22:21:15.238Z,3.13
2022-08-12T22:24:05.812Z,4.70
2022-08-12T22:26:51.403Z,3.05
2022-08-12T22:29:55.496Z,3.00
2022-08-12T22:33:01.245Z,3.00
2022-08-12T22:35:58.769Z,3.30
2022-08-12T22:38:46.565Z,3.30
2022-08-12T22:41:56.934Z,3.17
2022-08-12T22:45:01.858Z,3.25
2022-08-12T22:47:55.225Z,3.17
2022-08-12T22:50:41.365Z,3.22
2022-08-12T22:53:36.231Z,3.33
2022-08-12T22:56:31.377Z,3.25
2022-08-12T22:59:17.017Z,3.63
2022-08-12T23:02:07.666Z,3.28
2022-08-12T23:04:57.687Z,2.97
2022-08-12T23:07:58.657Z,3.80
2022-08-12T23:10:46.956Z,4.43
2022-08-12T23:13:55.525Z,7.75
2022-08-12T23:16:46.476Z,4.37
2022-08-12T23:19:38.434Z,2.97
2022-08-12T23:22:36.326Z,3.30
2022-08-12T23:25:55.393Z,3.75
2022-08-12T23:28:59.812Z,3.53
2022-08-12T23:32:02.616Z,3.03
2022-08-12T23:34:50.496Z,3.03
2022-08-12T23:37:47.716Z,2.80
2022-08-12T23:40:39.446Z,3.20
2022-08-12T23:43:25.680Z,3.10
2022-08-12T23:46:18.559Z,3.05
2022-08-12T23:49:13.799Z,2.92
2022-08-12T23:52:12.291Z,3.72
2022-08-12T23:54:58.477Z,3.05
2022-08-12T23:58:18.598Z,3.50
